Time;durP1;ratioP1;P1;durP2;ratioP2;P2;SDS_P1;SDS_P2;PMS_P1;PMS_P2;Temp;Humidity;BMP_temperature;BMP_pressure;BME280_temperature;BME280_humidity;BME280_pressure;Samples;Min_cycle;Max_cycle;Signal;HPM_P1;HPM_P2
2023/03/31 00:02:44;;;;;;;8.23;1.67;;;;;;;;;;8311281;28;20029;-64
2023/03/31 00:06:45;;;;;;;9.77;2.00;;;;;;;;;;8312995;28;20265;-63
2023/03/31 00:10:45;;;;;;;7.07;1.85;;;;;;;;;;8313705;28;20056;-63
2023/03/31 00:14:46;;;;;;;9.38;1.50;;;;;;;;;;8313388;28;20025;-63
2023/03/31 00:18:49;;;;;;;8.50;2.10;;;;;;;;;;8312253;28;20040;-63
2023/03/31 00:22:53;;;;;;;7.13;1.85;;;;;;;;;;8312485;28;20422;-63
2023/03/31 00:26:53;;;;;;;4.70;1.50;;;;;;;;;;8312053;28;20025;-64
2023/03/31 00:30:58;;;;;;;8.15;1.75;;;;;;;;;;8312165;28;20471;-64
2023/03/31 00:35:01;;;;;;;6.53;1.67;;;;;;;;;;8312609;28;20024;-63
2023/03/31 00:39:07;;;;;;;8.98;2.00;;;;;;;;;;8312505;28;20582;-64
2023/03/31 00:43:16;;;;;;;5.15;1.77;;;;;;;;;;8312034;28;20033;-64
2023/03/31 00:47:18;;;;;;;6.32;1.52;;;;;;;;;;8310959;28;20040;-63
2023/03/31 00:51:20;;;;;;;9.85;2.00;;;;;;;;;;8312521;28;20024;-64
2023/03/31 00:55:23;;;;;;;5.53;1.48;;;;;;;;;;8313388;28;20017;-63
2023/03/31 00:59:26;;;;;;;6.55;1.70;;;;;;;;;;8311878;28;20037;-64
2023/03/31 01:03:27;;;;;;;4.82;1.30;;;;;;;;;;8308841;28;20034;-63
2023/03/31 01:07:33;;;;;;;5.05;1.60;;;;;;;;;;8311058;28;20032;-63
2023/03/31 01:11:33;;;;;;;8.70;1.60;;;;;;;;;;8309465;28;20025;-63
2023/03/31 01:15:34;;;;;;;6.72;1.77;;;;;;;;;;8311084;28;20029;-63
2023/03/31 01:19:50;;;;;;;6.90;1.70;;;;;;;;;;8311462;28;20025;-64
2023/03/31 01:23:53;;;;;;;10.27;1.95;;;;;;;;;;8310085;28;20282;-64
2023/03/31 01:28:12;;;;;;;8.70;1.60;;;;;;;;;;8308129;28;20033;-64
2023/03/31 01:32:18;;;;;;;6.63;1.42;;;;;;;;;;8310519;28;20047;-63
2023/03/31 01:36:32;;;;;;;7.78;1.60;;;;;;;;;;8308978;28;20025;-64
2023/03/31 01:40:35;;;;;;;9.88;1.63;;;;;;;;;;8310359;28;20024;-63
2023/03/31 01:44:35;;;;;;;7.97;1.50;;;;;;;;;;8310111;28;20515;-64
2023/03/31 01:48:40;;;;;;;7.68;1.70;;;;;;;;;;8309310;28;20139;-64
2023/03/31 01:52:45;;;;;;;4.55;1.30;;;;;;;;;;8311432;28;20028;-63
2023/03/31 01:56:51;;;;;;;8.40;1.70;;;;;;;;;;8308734;28;20021;-63
2023/03/31 02:00:57;;;;;;;9.43;1.75;;;;;;;;;;8308813;28;20058;-64
2023/03/31 02:05:04;;;;;;;6.88;1.55;;;;;;;;;;8294367;28;20107;-64
2023/03/31 02:09:13;;;;;;;4.53;1.20;;;;;;;;;;8306072;28;20502;-64
2023/03/31 02:13:15;;;;;;;7.72;1.50;;;;;;;;;;8305957;28;20119;-64
2023/03/31 02:17:17;;;;;;;6.82;1.65;;;;;;;;;;8306692;28;20136;-64
2023/03/31 02:21:19;;;;;;;4.53;1.20;;;;;;;;;;8306061;28;20025;-64
2023/03/31 02:25:21;;;;;;;7.45;1.50;;;;;;;;;;8306198;28;20877;-63
2023/03/31 02:29:22;;;;;;;6.70;1.40;;;;;;;;;;8308039;28;20367;-63
2023/03/31 02:33:22;;;;;;;10.75;1.55;;;;;;;;;;8306827;28;20033;-64
2023/03/31 02:37:22;;;;;;;7.38;1.67;;;;;;;;;;8307299;28;20569;-64
2023/03/31 02:41:23;;;;;;;4.80;1.50;;;;;;;;;;8305697;28;20024;-64
2023/03/31 02:45:42;;;;;;;4.43;1.30;;;;;;;;;;8306308;28;20471;-64
2023/03/31 02:49:45;;;;;;;5.15;1.20;;;;;;;;;;8305041;28;20292;-64
2023/03/31 02:54:03;;;;;;;4.47;1.25;;;;;;;;;;8307815;28;20013;-64
2023/03/31 02:58:12;;;;;;;5.13;1.40;;;;;;;;;;8305177;28;20080;-64
2023/03/31 03:02:26;;;;;;;5.03;1.23;;;;;;;;;;8307119;28;20639;-64
2023/03/31 03:06:28;;;;;;;6.20;1.30;;;;;;;;;;8305834;28;20799;-63
2023/03/31 03:10:48;;;;;;;6.30;1.20;;;;;;;;;;8305544;28;20033;-64
2023/03/31 03:14:51;;;;;;;3.42;0.98;;;;;;;;;;8308987;28;20037;-64
2023/03/31 03:18:56;;;;;;;2.53;1.05;;;;;;;;;;8306579;28;20029;-64
2023/03/31 03:22:56;;;;;;;6.25;1.40;;;;;;;;;;8309403;28;20917;-64
2023/03/31 03:26:56;;;;;;;10.35;1.63;;;;;;;;;;8307415;28;20039;-64
2023/03/31 03:30:56;;;;;;;7.00;2.00;;;;;;;;;;8309537;28;20755;-63
2023/03/31 03:34:57;;;;;;;8.32;2.25;;;;;;;;;;8305920;28;20080;-63
2023/03/31 03:38:57;;;;;;;4.07;1.65;;;;;;;;;;8312263;28;20548;-63
2023/03/31 03:42:57;;;;;;;6.80;2.20;;;;;;;;;;8313473;28;20025;-64
2023/03/31 03:46:57;;;;;;;4.57;1.43;;;;;;;;;;8311634;28;20291;-64
2023/03/31 03:50:58;;;;;;;7.60;2.33;;;;;;;;;;8313822;28;20040;-64
2023/03/31 03:55:00;;;;;;;6.97;2.08;;;;;;;;;;8315604;28;20101;-63
2023/03/31 03:59:00;;;;;;;8.27;3.13;;;;;;;;;;8312865;28;20018;-63
2023/03/31 04:03:00;;;;;;;8.68;3.25;;;;;;;;;;8311151;28;20038;-64
2023/03/31 04:07:01;;;;;;;9.05;2.20;;;;;;;;;;8313435;28;20014;-63
2023/03/31 04:11:01;;;;;;;3.88;1.67;;;;;;;;;;8313362;28;20240;-63
2023/03/31 04:15:01;;;;;;;5.28;2.03;;;;;;;;;;8310794;28;20029;-63
2023/03/31 04:19:03;;;;;;;3.90;1.67;;;;;;;;;;8312585;28;20067;-64
2023/03/31 04:23:04;;;;;;;3.35;1.35;;;;;;;;;;8315561;28;20028;-63
2023/03/31 04:27:06;;;;;;;5.97;1.20;;;;;;;;;;8311450;28;20064;-64
2023/03/31 04:31:06;;;;;;;4.97;1.50;;;;;;;;;;8311457;28;20037;-64
2023/03/31 04:35:06;;;;;;;8.10;1.70;;;;;;;;;;8310984;28;20068;-64
2023/03/31 04:39:09;;;;;;;6.72;1.63;;;;;;;;;;8312725;28;20099;-64
2023/03/31 04:43:09;;;;;;;6.03;2.05;;;;;;;;;;8313749;28;20129;-64
2023/03/31 04:47:10;;;;;;;7.15;1.48;;;;;;;;;;8312095;28;20064;-64
2023/03/31 04:51:10;;;;;;;4.07;1.45;;;;;;;;;;8308216;28;20035;-64
2023/03/31 04:55:11;;;;;;;3.87;1.40;;;;;;;;;;8311156;28;20556;-64
2023/03/31 04:59:11;;;;;;;5.88;1.38;;;;;;;;;;8311392;28;20272;-64
2023/03/31 05:03:11;;;;;;;3.50;1.15;;;;;;;;;;8309783;28;20120;-64
2023/03/31 05:07:12;;;;;;;5.03;1.38;;;;;;;;;;8307263;28;20025;-64
2023/03/31 05:11:12;;;;;;;6.07;1.70;;;;;;;;;;8306826;28;20707;-64
2023/03/31 05:15:12;;;;;;;7.83;2.03;;;;;;;;;;8309948;28;20385;-64
2023/03/31 05:19:12;;;;;;;9.23;2.53;;;;;;;;;;8309810;28;20311;-64
2023/03/31 05:23:13;;;;;;;5.00;1.80;;;;;;;;;;8309796;28;20458;-64
2023/03/31 05:27:14;;;;;;;7.03;1.90;;;;;;;;;;8308642;28;20036;-64
2023/03/31 05:31:14;;;;;;;5.00;2.17;;;;;;;;;;8306501;28;20537;-65
2023/03/31 05:35:14;;;;;;;10.73;2.60;;;;;;;;;;8310498;28;20220;-65
2023/03/31 05:39:15;;;;;;;5.40;1.75;;;;;;;;;;8309227;28;20025;-64
2023/03/31 05:43:15;;;;;;;14.13;3.83;;;;;;;;;;8310385;28;20021;-63
2023/03/31 05:47:15;;;;;;;6.82;1.90;;;;;;;;;;8309373;28;20041;-64
2023/03/31 05:51:15;;;;;;;6.57;2.75;;;;;;;;;;8309070;28;20031;-63
2023/03/31 05:55:16;;;;;;;6.72;3.15;;;;;;;;;;8311358;28;20021;-63
2023/03/31 05:59:16;;;;;;;7.18;2.40;;;;;;;;;;8311122;28;20021;-64
2023/03/31 06:03:17;;;;;;;9.15;2.60;;;;;;;;;;8308549;28;20030;-63
2023/03/31 06:07:17;;;;;;;7.78;2.58;;;;;;;;;;8306921;28;20705;-64
2023/03/31 06:11:18;;;;;;;5.33;2.37;;;;;;;;;;8308530;28;20034;-63
2023/03/31 06:15:18;;;;;;;6.80;2.28;;;;;;;;;;8307509;28;21344;-64
2023/03/31 06:19:19;;;;;;;7.05;2.50;;;;;;;;;;8309716;28;20414;-63
2023/03/31 06:23:19;;;;;;;4.53;2.50;;;;;;;;;;8307364;28;20033;-63
2023/03/31 06:27:19;;;;;;;5.50;2.67;;;;;;;;;;8309481;28;20099;-63
2023/03/31 06:31:21;;;;;;;6.05;2.95;;;;;;;;;;8308488;28;20423;-64
2023/03/31 06:35:21;;;;;;;7.72;2.72;;;;;;;;;;8307650;28;20063;-64
2023/03/31 06:39:21;;;;;;;7.45;3.10;;;;;;;;;;8310161;28;20036;-64
2023/03/31 06:43:22;;;;;;;7.30;3.10;;;;;;;;;;8309429;28;20032;-63
2023/03/31 06:47:22;;;;;;;9.48;2.67;;;;;;;;;;8309869;28;20037;-63
2023/03/31 06:51:22;;;;;;;6.47;2.75;;;;;;;;;;8307681;28;20036;-63
2023/03/31 06:55:22;;;;;;;6.18;2.42;;;;;;;;;;8309155;28;20070;-63
2023/03/31 06:59:22;;;;;;;8.45;3.47;;;;;;;;;;8308136;28;20025;-63
2023/03/31 07:03:23;;;;;;;7.07;2.90;;;;;;;;;;8308286;28;20625;-63
2023/03/31 07:07:23;;;;;;;6.10;1.90;;;;;;;;;;8308213;28;20028;-63
2023/03/31 07:11:24;;;;;;;3.65;1.70;;;;;;;;;;8308874;28;20031;-63
2023/03/31 07:15:24;;;;;;;3.97;1.67;;;;;;;;;;8312690;28;20033;-64
2023/03/31 07:19:25;;;;;;;4.70;1.83;;;;;;;;;;8313717;28;20029;-64
2023/03/31 07:23:25;;;;;;;5.50;1.80;;;;;;;;;;8315693;28;20064;-64
2023/03/31 07:27:25;;;;;;;3.20;1.50;;;;;;;;;;8314797;28;20040;-64
2023/03/31 07:31:26;;;;;;;4.55;1.48;;;;;;;;;;8314650;28;20541;-63
2023/03/31 07:35:26;;;;;;;3.80;1.50;;;;;;;;;;8313822;28;20037;-64
2023/03/31 07:39:26;;;;;;;1.38;1.20;;;;;;;;;;8312518;28;20095;-64
2023/03/31 07:43:26;;;;;;;5.47;1.40;;;;;;;;;;8313315;28;20045;-64
2023/03/31 07:47:27;;;;;;;3.20;1.10;;;;;;;;;;8311308;28;20115;-64
2023/03/31 07:51:27;;;;;;;3.80;1.20;;;;;;;;;;8311214;28;20052;-64
2023/03/31 07:55:27;;;;;;;6.00;1.70;;;;;;;;;;8314546;28;20029;-64
2023/03/31 07:59:29;;;;;;;5.47;1.60;;;;;;;;;;8311525;28;20021;-64
2023/03/31 08:03:30;;;;;;;6.60;2.30;;;;;;;;;;8314634;28;20090;-64
2023/03/31 08:07:34;;;;;;;9.55;2.35;;;;;;;;;;8312130;28;20736;-64
2023/03/31 08:11:34;;;;;;;8.13;2.67;;;;;;;;;;8312279;28;20040;-63
2023/03/31 08:15:34;;;;;;;5.50;2.80;;;;;;;;;;8310957;28;20025;-64
2023/03/31 08:19:35;;;;;;;6.70;2.80;;;;;;;;;;8312101;28;20025;-64
2023/03/31 08:23:35;;;;;;;5.97;2.72;;;;;;;;;;8314113;28;20014;-64
2023/03/31 08:27:37;;;;;;;11.07;2.93;;;;;;;;;;8312011;28;20049;-64
2023/03/31 08:31:37;;;;;;;9.18;2.67;;;;;;;;;;8308820;28;20656;-63
2023/03/31 08:35:38;;;;;;;5.55;1.63;;;;;;;;;;8310358;28;20028;-62
2023/03/31 08:39:38;;;;;;;7.07;2.33;;;;;;;;;;8313167;28;20083;-63
2023/03/31 08:43:41;;;;;;;4.13;1.52;;;;;;;;;;8314312;28;20280;-63
2023/03/31 08:47:42;;;;;;;10.65;2.13;;;;;;;;;;8311130;28;20500;-63
2023/03/31 08:51:46;;;;;;;5.53;1.73;;;;;;;;;;8313190;28;20028;-64
2023/03/31 08:55:51;;;;;;;8.60;2.33;;;;;;;;;;8312599;28;20142;-64
2023/03/31 08:59:51;;;;;;;5.03;1.65;;;;;;;;;;8312690;28;20027;-64
2023/03/31 09:04:10;;;;;;;5.93;1.73;;;;;;;;;;8312717;28;20064;-64
2023/03/31 09:08:32;;;;;;;5.90;2.10;;;;;;;;;;8309288;28;20026;-64
2023/03/31 09:12:35;;;;;;;13.52;3.08;;;;;;;;;;8311601;28;20028;-64
2023/03/31 09:16:39;;;;;;;7.68;2.85;;;;;;;;;;8312616;28;20063;-64
2023/03/31 09:20:43;;;;;;;11.05;2.90;;;;;;;;;;8309293;28;20059;-64
2023/03/31 09:24:48;;;;;;;7.43;2.22;;;;;;;;;;8307763;28;20017;-64
2023/03/31 09:28:50;;;;;;;3.95;1.52;;;;;;;;;;8309557;28;20172;-64
2023/03/31 09:32:51;;;;;;;5.30;1.95;;;;;;;;;;8309282;28;20052;-64
2023/03/31 09:36:52;;;;;;;5.78;1.38;;;;;;;;;;8293272;28;20053;-64
2023/03/31 09:40:52;;;;;;;6.60;1.63;;;;;;;;;;8309118;28;20040;-64
2023/03/31 09:44:52;;;;;;;6.65;1.50;;;;;;;;;;8308966;28;20021;-63
2023/03/31 09:49:11;;;;;;;6.53;1.58;;;;;;;;;;8310484;28;20111;-64
2023/03/31 09:53:17;;;;;;;4.30;1.60;;;;;;;;;;8308816;28;20409;-64
2023/03/31 09:57:26;;;;;;;7.28;1.92;;;;;;;;;;8308490;28;20040;-64
2023/03/31 10:01:28;;;;;;;9.23;1.95;;;;;;;;;;8311462;28;20041;-64
2023/03/31 10:05:32;;;;;;;11.45;2.33;;;;;;;;;;8309728;28;20095;-64
2023/03/31 10:09:34;;;;;;;9.80;2.15;;;;;;;;;;8309928;28;20036;-64
2023/03/31 10:13:37;;;;;;;11.05;2.45;;;;;;;;;;8309122;28;20032;-64
2023/03/31 10:17:39;;;;;;;8.97;2.30;;;;;;;;;;8309390;28;20036;-64
2023/03/31 10:21:44;;;;;;;10.80;2.55;;;;;;;;;;8309747;28;20279;-64
2023/03/31 10:25:46;;;;;;;10.52;2.47;;;;;;;;;;8307618;28;20123;-64
2023/03/31 10:29:46;;;;;;;10.82;2.17;;;;;;;;;;8308698;28;20143;-64
2023/03/31 10:33:47;;;;;;;8.85;2.20;;;;;;;;;;8309497;28;20043;-64
2023/03/31 10:37:49;;;;;;;12.07;2.90;;;;;;;;;;8306987;28;20051;-64
2023/03/31 10:41:51;;;;;;;9.70;2.33;;;;;;;;;;8308755;28;20687;-64
2023/03/31 10:45:53;;;;;;;8.18;2.20;;;;;;;;;;8308981;28;20041;-64
2023/03/31 10:49:56;;;;;;;9.43;2.13;;;;;;;;;;8314740;28;20029;-64
2023/03/31 10:54:00;;;;;;;13.10;2.73;;;;;;;;;;8315416;28;20025;-64
2023/03/31 10:58:25;;;;;;;9.93;2.45;;;;;;;;;;8314930;28;20496;-64
2023/03/31 11:02:46;;;;;;;14.63;2.80;;;;;;;;;;8316407;28;20567;-64
2023/03/31 11:07:06;;;;;;;11.25;2.60;;;;;;;;;;8316341;28;20072;-64
2023/03/31 11:11:09;;;;;;;8.57;2.00;;;;;;;;;;8314976;28;20024;-64
2023/03/31 11:15:20;;;;;;;11.63;2.20;;;;;;;;;;8315764;28;20025;-64
2023/03/31 11:19:32;;;;;;;12.05;3.15;;;;;;;;;;8316596;28;20830;-64
2023/03/31 11:24:02;;;;;;;12.55;3.10;;;;;;;;;;8314928;28;20021;-63
2023/03/31 11:28:02;;;;;;;10.95;2.40;;;;;;;;;;8306765;28;20362;-64
2023/03/31 11:32:21;;;;;;;10.70;3.00;;;;;;;;;;8313169;28;20134;-63
2023/03/31 11:36:40;;;;;;;9.88;2.55;;;;;;;;;;8314789;28;20014;-64
2023/03/31 11:40:52;;;;;;;12.70;2.97;;;;;;;;;;8310525;28;20436;-64
2023/03/31 11:45:15;;;;;;;9.38;2.17;;;;;;;;;;8312365;28;20033;-64
2023/03/31 11:49:24;;;;;;;10.30;2.43;;;;;;;;;;8298040;28;20046;-64
2023/03/31 11:53:27;;;;;;;12.23;2.60;;;;;;;;;;8309430;28;20122;-64
2023/03/31 11:57:35;;;;;;;6.78;2.03;;;;;;;;;;8310198;28;20040;-64
2023/03/31 12:01:36;;;;;;;7.32;2.17;;;;;;;;;;8311383;28;20033;-65
2023/03/31 12:05:40;;;;;;;7.82;1.80;;;;;;;;;;8307219;28;20021;-65
2023/03/31 12:10:04;;;;;;;6.25;1.85;;;;;;;;;;8307670;28;20690;-65
2023/03/31 12:14:23;;;;;;;7.10;1.65;;;;;;;;;;8312159;28;20076;-65
2023/03/31 12:18:24;;;;;;;9.23;1.88;;;;;;;;;;8310025;28;20049;-65
2023/03/31 12:22:28;;;;;;;5.25;1.73;;;;;;;;;;8310337;28;20021;-65
2023/03/31 12:26:47;;;;;;;6.35;1.48;;;;;;;;;;8309851;28;20434;-65
2023/03/31 12:30:48;;;;;;;7.78;1.90;;;;;;;;;;8307836;28;20056;-65
2023/03/31 12:35:00;;;;;;;6.50;1.67;;;;;;;;;;8306487;28;20021;-65
2023/03/31 12:39:04;;;;;;;7.28;1.90;;;;;;;;;;8307819;28;20063;-65
2023/03/31 12:43:04;;;;;;;5.10;1.70;;;;;;;;;;8305645;28;20794;-65
2023/03/31 12:47:23;;;;;;;6.22;1.90;;;;;;;;;;8272916;28;1034221;-65
2023/03/31 12:51:23;;;;;;;4.60;1.27;;;;;;;;;;8311899;28;20068;-65
2023/03/31 12:55:31;;;;;;;4.97;1.23;;;;;;;;;;8308624;28;20033;-65
2023/03/31 12:59:34;;;;;;;3.42;0.75;;;;;;;;;;8308961;28;20021;-63
2023/03/31 13:03:34;;;;;;;3.10;0.88;;;;;;;;;;8310184;28;20224;-63
2023/03/31 13:07:36;;;;;;;3.47;0.98;;;;;;;;;;8311129;28;20063;-63
2023/03/31 13:11:38;;;;;;;5.22;1.08;;;;;;;;;;8308329;28;20029;-63
2023/03/31 13:15:38;;;;;;;3.47;1.00;;;;;;;;;;8311423;28;20087;-64
2023/03/31 13:19:39;;;;;;;6.60;1.00;;;;;;;;;;8310909;28;20022;-64
2023/03/31 13:23:43;;;;;;;4.70;1.00;;;;;;;;;;8308343;28;20025;-63
2023/03/31 13:27:52;;;;;;;3.00;0.90;;;;;;;;;;8308251;28;20447;-63
2023/03/31 13:32:01;;;;;;;4.15;1.00;;;;;;;;;;8309409;28;20048;-63
2023/03/31 13:36:24;;;;;;;4.20;1.15;;;;;;;;;;8308593;28;20070;-63
2023/03/31 13:40:43;;;;;;;3.60;1.00;;;;;;;;;;8292259;28;20548;-63
2023/03/31 13:44:43;;;;;;;3.60;1.15;;;;;;;;;;8308050;28;20016;-63
2023/03/31 13:49:02;;;;;;;5.00;0.93;;;;;;;;;;8305036;28;20135;-63
2023/03/31 13:53:17;;;;;;;4.35;1.15;;;;;;;;;;8309531;28;20116;-63
2023/03/31 13:57:36;;;;;;;3.92;1.30;;;;;;;;;;8308136;28;20140;-64
2023/03/31 14:01:41;;;;;;;3.45;1.20;;;;;;;;;;8306927;28;20049;-64
2023/03/31 14:05:42;;;;;;;4.13;1.20;;;;;;;;;;8307646;28;20614;-64
2023/03/31 14:09:48;;;;;;;4.70;1.60;;;;;;;;;;8307449;28;20024;-64
2023/03/31 14:13:58;;;;;;;7.22;1.35;;;;;;;;;;8308813;28;20079;-64
2023/03/31 14:17:58;;;;;;;6.10;1.80;;;;;;;;;;8305966;28;20564;-63
2023/03/31 14:22:04;;;;;;;5.90;1.90;;;;;;;;;;8307399;28;20472;-63
2023/03/31 14:26:24;;;;;;;5.68;1.70;;;;;;;;;;8307611;28;20033;-63
2023/03/31 14:30:37;;;;;;;6.18;1.40;;;;;;;;;;8304632;28;20486;-64
2023/03/31 14:34:43;;;;;;;3.78;1.45;;;;;;;;;;8305733;28;20182;-63
2023/03/31 14:38:44;;;;;;;5.07;1.05;;;;;;;;;;8306292;28;20032;-63
2023/03/31 14:42:48;;;;;;;5.38;1.38;;;;;;;;;;8307338;28;20031;-63
2023/03/31 14:46:49;;;;;;;6.25;1.50;;;;;;;;;;8304936;28;20081;-64
2023/03/31 14:50:55;;;;;;;3.58;1.02;;;;;;;;;;8305869;28;20393;-64
2023/03/31 14:54:55;;;;;;;4.90;1.00;;;;;;;;;;8307705;28;20091;-64
2023/03/31 14:58:56;;;;;;;5.00;1.20;;;;;;;;;;8304751;28;20725;-64
2023/03/31 15:02:57;;;;;;;4.97;1.60;;;;;;;;;;8309567;28;20034;-64
2023/03/31 15:06:59;;;;;;;5.57;1.30;;;;;;;;;;8310622;28;20473;-64
2023/03/31 15:11:00;;;;;;;4.07;1.30;;;;;;;;;;8306656;28;20812;-64
2023/03/31 15:15:03;;;;;;;4.32;1.40;;;;;;;;;;8309305;28;20032;-64
2023/03/31 15:19:21;;;;;;;6.32;1.65;;;;;;;;;;8311047;28;20064;-64
2023/03/31 15:23:23;;;;;;;10.52;1.80;;;;;;;;;;8310053;28;20028;-64
2023/03/31 15:27:26;;;;;;;3.53;1.23;;;;;;;;;;8310193;28;20747;-64
2023/03/31 15:31:27;;;;;;;7.47;2.13;;;;;;;;;;8303667;28;21129;-64
2023/03/31 15:35:27;;;;;;;5.38;2.05;;;;;;;;;;8310740;28;20949;-64
2023/03/31 15:39:30;;;;;;;5.38;1.48;;;;;;;;;;8310755;28;20029;-64
2023/03/31 15:43:31;;;;;;;4.45;1.30;;;;;;;;;;8311932;28;22380;-64
2023/03/31 15:47:36;;;;;;;4.88;1.42;;;;;;;;;;8310885;28;20042;-64
2023/03/31 15:51:39;;;;;;;5.40;1.55;;;;;;;;;;8311466;28;20036;-64
2023/03/31 15:55:40;;;;;;;7.30;1.58;;;;;;;;;;8312140;28;20453;-64
2023/03/31 15:59:54;;;;;;;6.68;1.75;;;;;;;;;;8310918;28;20033;-64
2023/03/31 16:03:55;;;;;;;6.95;1.80;;;;;;;;;;8309343;28;20080;-65
2023/03/31 16:07:56;;;;;;;7.22;2.08;;;;;;;;;;8311472;28;20017;-64
2023/03/31 16:11:58;;;;;;;8.27;2.08;;;;;;;;;;8312768;28;20032;-64
2023/03/31 16:15:58;;;;;;;5.43;1.60;;;;;;;;;;8311751;28;20482;-64
2023/03/31 16:20:07;;;;;;;6.43;2.40;;;;;;;;;;8308404;28;20407;-64
2023/03/31 16:24:08;;;;;;;8.25;2.13;;;;;;;;;;8312639;28;20098;-64
2023/03/31 16:28:12;;;;;;;7.65;2.67;;;;;;;;;;8310049;28;20021;-64
2023/03/31 16:32:12;;;;;;;4.93;1.88;;;;;;;;;;8310704;28;20140;-64
2023/03/31 16:36:14;;;;;;;8.38;2.50;;;;;;;;;;8311446;28;20492;-65
2023/03/31 16:40:15;;;;;;;4.90;1.73;;;;;;;;;;8308728;28;20878;-64
2023/03/31 16:44:15;;;;;;;8.80;2.20;;;;;;;;;;8308990;28;20033;-65
2023/03/31 16:48:16;;;;;;;6.55;2.10;;;;;;;;;;8310299;28;20605;-64
2023/03/31 16:52:17;;;;;;;7.22;1.90;;;;;;;;;;8308699;28;20114;-64
2023/03/31 16:56:17;;;;;;;4.95;2.17;;;;;;;;;;8310283;28;20500;-63
2023/03/31 17:00:18;;;;;;;5.72;1.90;;;;;;;;;;8310218;28;20056;-64
2023/03/31 17:04:19;;;;;;;6.57;1.70;;;;;;;;;;8310625;28;20013;-63
2023/03/31 17:08:20;;;;;;;4.05;1.23;;;;;;;;;;8311154;28;20132;-64
2023/03/31 17:12:21;;;;;;;7.57;2.80;;;;;;;;;;8309657;28;20044;-63
2023/03/31 17:16:21;;;;;;;4.97;1.60;;;;;;;;;;8311756;28;20026;-64
2023/03/31 17:20:21;;;;;;;5.40;1.77;;;;;;;;;;8307986;28;20674;-64
2023/03/31 17:24:22;;;;;;;3.65;1.00;;;;;;;;;;8309296;28;20884;-64
2023/03/31 17:28:22;;;;;;;9.15;1.50;;;;;;;;;;8307555;28;20029;-64
2023/03/31 17:32:22;;;;;;;4.13;1.23;;;;;;;;;;8308358;28;20467;-64
2023/03/31 17:36:22;;;;;;;3.78;1.17;;;;;;;;;;8292569;28;20025;-64
2023/03/31 17:40:23;;;;;;;4.45;1.20;;;;;;;;;;8305119;28;20025;-64
2023/03/31 17:44:23;;;;;;;4.88;1.00;;;;;;;;;;8305081;28;21009;-63
2023/03/31 17:48:23;;;;;;;2.30;1.00;;;;;;;;;;8305987;28;20041;-63
2023/03/31 17:52:24;;;;;;;5.15;1.10;;;;;;;;;;8305963;28;20110;-63
2023/03/31 17:56:24;;;;;;;1.45;0.80;;;;;;;;;;8306754;28;20075;-63
2023/03/31 18:00:25;;;;;;;6.33;1.20;;;;;;;;;;8307686;28;20469;-64
2023/03/31 18:04:26;;;;;;;4.53;0.90;;;;;;;;;;8307077;28;20728;-63
2023/03/31 18:08:26;;;;;;;2.88;1.00;;;;;;;;;;8305243;28;20021;-64
2023/03/31 18:12:27;;;;;;;4.30;0.90;;;;;;;;;;8305153;28;20041;-63
2023/03/31 18:16:29;;;;;;;3.22;1.20;;;;;;;;;;8308407;28;20504;-63
2023/03/31 18:20:29;;;;;;;3.80;1.30;;;;;;;;;;8306064;28;20029;-63
2023/03/31 18:24:31;;;;;;;4.63;1.20;;;;;;;;;;8307499;28;20034;-64
2023/03/31 18:28:31;;;;;;;4.10;1.05;;;;;;;;;;8308994;28;20029;-63
2023/03/31 18:32:31;;;;;;;6.22;1.70;;;;;;;;;;8306710;28;20364;-64
2023/03/31 18:36:32;;;;;;;6.90;1.37;;;;;;;;;;8309470;28;20009;-63
2023/03/31 18:40:32;;;;;;;7.07;1.25;;;;;;;;;;8307154;28;20362;-63
2023/03/31 18:44:34;;;;;;;4.03;1.02;;;;;;;;;;8307306;28;20120;-63
2023/03/31 18:48:35;;;;;;;7.60;1.45;;;;;;;;;;8307470;28;20481;-63
2023/03/31 18:52:36;;;;;;;4.18;1.20;;;;;;;;;;8303387;28;20036;-63
2023/03/31 18:56:36;;;;;;;3.35;1.10;;;;;;;;;;8307297;28;20033;-63
2023/03/31 19:00:36;;;;;;;3.95;1.05;;;;;;;;;;8307294;28;20472;-63
2023/03/31 19:04:37;;;;;;;4.78;1.02;;;;;;;;;;8306592;28;20065;-63
2023/03/31 19:08:37;;;;;;;5.45;1.00;;;;;;;;;;8308450;28;20020;-63
2023/03/31 19:12:37;;;;;;;3.25;0.90;;;;;;;;;;8309787;28;20028;-63
2023/03/31 19:16:41;;;;;;;2.55;0.95;;;;;;;;;;8310928;28;20044;-63
2023/03/31 19:20:41;;;;;;;2.20;0.90;;;;;;;;;;8310688;28;20029;-63
2023/03/31 19:24:43;;;;;;;4.43;1.20;;;;;;;;;;8310199;28;20032;-63
2023/03/31 19:28:45;;;;;;;4.28;1.13;;;;;;;;;;8308762;28;20155;-63
2023/03/31 19:32:47;;;;;;;3.50;1.15;;;;;;;;;;8310844;28;20864;-63
2023/03/31 19:36:47;;;;;;;3.90;1.00;;;;;;;;;;8307321;28;20041;-63
2023/03/31 19:40:48;;;;;;;3.13;1.20;;;;;;;;;;8309982;28;20473;-63
2023/03/31 19:44:48;;;;;;;3.38;1.00;;;;;;;;;;8310504;28;20781;-64
2023/03/31 19:48:48;;;;;;;3.13;1.10;;;;;;;;;;8310385;28;20071;-64
2023/03/31 19:52:49;;;;;;;4.50;1.03;;;;;;;;;;8313701;28;20774;-64
2023/03/31 19:56:49;;;;;;;2.92;0.80;;;;;;;;;;8312454;28;21024;-64
2023/03/31 20:00:51;;;;;;;3.83;1.00;;;;;;;;;;8310437;28;21042;-63
2023/03/31 20:04:51;;;;;;;2.72;0.80;;;;;;;;;;8311084;28;21146;-63
2023/03/31 20:08:54;;;;;;;5.10;1.25;;;;;;;;;;8310750;28;20024;-64
2023/03/31 20:12:55;;;;;;;2.83;1.00;;;;;;;;;;8313069;28;20029;-64
2023/03/31 20:16:59;;;;;;;6.40;1.10;;;;;;;;;;8309932;28;20080;-64
2023/03/31 20:20:59;;;;;;;;;;;;;;;;;;8311941;28;20020;-64
2023/03/31 20:25:00;;;;;;;2.92;1.02;;;;;;;;;;8310638;28;19920;-64
2023/03/31 20:29:01;;;;;;;4.38;1.08;;;;;;;;;;8307802;28;20076;-63
2023/03/31 20:33:01;;;;;;;2.83;1.00;;;;;;;;;;8310059;28;20034;-64
2023/03/31 20:37:02;;;;;;;4.78;0.90;;;;;;;;;;8311620;28;20021;-64
2023/03/31 20:41:02;;;;;;;4.30;1.25;;;;;;;;;;8311308;28;20017;-64
2023/03/31 20:45:03;;;;;;;6.55;1.50;;;;;;;;;;8310415;28;20064;-64
2023/03/31 20:49:04;;;;;;;5.05;1.20;;;;;;;;;;8311107;28;20116;-64
2023/03/31 20:53:04;;;;;;;5.93;1.30;;;;;;;;;;8309443;28;20107;-64
2023/03/31 20:57:06;;;;;;;4.97;1.38;;;;;;;;;;8311100;28;20453;-64
2023/03/31 21:01:06;;;;;;;4.32;1.48;;;;;;;;;;8308488;28;20575;-64
2023/03/31 21:05:07;;;;;;;6.82;1.00;;;;;;;;;;8309372;28;20094;-64
2023/03/31 21:09:07;;;;;;;7.28;1.02;;;;;;;;;;8308998;28;20033;-65
2023/03/31 21:13:12;;;;;;;4.10;1.10;;;;;;;;;;8308775;28;20025;-64
2023/03/31 21:17:12;;;;;;;5.53;1.17;;;;;;;;;;8309280;28;20036;-63
2023/03/31 21:21:14;;;;;;;5.05;1.35;;;;;;;;;;8302945;28;20551;-64
2023/03/31 21:25:14;;;;;;;5.50;1.33;;;;;;;;;;8306248;28;20041;-64
2023/03/31 21:29:16;;;;;;;9.15;1.27;;;;;;;;;;8308372;28;20060;-64
2023/03/31 21:33:17;;;;;;;3.50;1.00;;;;;;;;;;8306948;28;20569;-64
2023/03/31 21:37:17;;;;;;;4.85;1.50;;;;;;;;;;8307811;28;20893;-64
2023/03/31 21:41:19;;;;;;;6.85;1.00;;;;;;;;;;8291172;28;20025;-63
2023/03/31 21:45:20;;;;;;;4.35;1.27;;;;;;;;;;8307273;28;20021;-64
2023/03/31 21:49:20;;;;;;;3.83;1.38;;;;;;;;;;8307642;28;20563;-63
2023/03/31 21:53:21;;;;;;;7.25;1.38;;;;;;;;;;8308542;28;20060;-64
2023/03/31 21:57:21;;;;;;;4.60;1.30;;;;;;;;;;8308879;28;20021;-64
2023/03/31 22:01:22;;;;;;;5.13;1.30;;;;;;;;;;8306228;28;20041;-64
2023/03/31 22:05:22;;;;;;;4.00;1.20;;;;;;;;;;8309263;28;20060;-64
2023/03/31 22:09:22;;;;;;;4.05;1.05;;;;;;;;;;8301523;28;20029;-64
2023/03/31 22:13:23;;;;;;;3.17;1.08;;;;;;;;;;8303135;28;20028;-64
2023/03/31 22:17:23;;;;;;;4.57;1.10;;;;;;;;;;8303065;28;20076;-64
2023/03/31 22:21:25;;;;;;;4.72;1.30;;;;;;;;;;8298681;28;20028;-64
2023/03/31 22:25:25;;;;;;;3.80;1.23;;;;;;;;;;8309770;28;20075;-64
2023/03/31 22:29:25;;;;;;;4.75;1.42;;;;;;;;;;8307361;28;20532;-64
2023/03/31 22:33:26;;;;;;;4.00;1.27;;;;;;;;;;8307805;28;20039;-64
2023/03/31 22:37:26;;;;;;;6.30;1.40;;;;;;;;;;8308745;28;20104;-64
2023/03/31 22:41:26;;;;;;;5.80;1.42;;;;;;;;;;8309443;28;20030;-64
2023/03/31 22:45:26;;;;;;;3.47;1.20;;;;;;;;;;8316477;28;20047;-64
2023/03/31 22:49:26;;;;;;;4.80;1.30;;;;;;;;;;8316894;28;20032;-64
2023/03/31 22:53:27;;;;;;;5.25;1.13;;;;;;;;;;8315099;28;20029;-64
2023/03/31 22:57:27;;;;;;;5.47;1.38;;;;;;;;;;8314442;28;20014;-64
2023/03/31 23:01:27;;;;;;;5.60;1.55;;;;;;;;;;8314515;28;20132;-64
2023/03/31 23:05:28;;;;;;;7.50;1.20;;;;;;;;;;8315603;28;21009;-64
2023/03/31 23:09:28;;;;;;;3.65;1.02;;;;;;;;;;8315421;28;20026;-64
2023/03/31 23:13:28;;;;;;;6.43;1.48;;;;;;;;;;8314464;28;20057;-64
2023/03/31 23:17:29;;;;;;;5.75;1.20;;;;;;;;;;8313973;28;20044;-64
2023/03/31 23:21:30;;;;;;;4.85;1.30;;;;;;;;;;8315477;28;20478;-64
2023/03/31 23:25:31;;;;;;;4.35;1.20;;;;;;;;;;8313348;28;20044;-64
2023/03/31 23:29:32;;;;;;;6.40;1.48;;;;;;;;;;8314185;28;20029;-64
2023/03/31 23:33:32;;;;;;;5.38;1.38;;;;;;;;;;8311631;28;20502;-64
2023/03/31 23:37:32;;;;;;;5.03;1.60;;;;;;;;;;8309511;28;20037;-64
2023/03/31 23:41:32;;;;;;;4.40;1.20;;;;;;;;;;8309400;28;20026;-64
2023/03/31 23:45:33;;;;;;;3.38;1.10;;;;;;;;;;8315550;28;20041;-64
2023/03/31 23:49:33;;;;;;;9.57;1.77;;;;;;;;;;8314936;28;20147;-64
2023/03/31 23:53:33;;;;;;;4.93;1.20;;;;;;;;;;8313120;28;20017;-64
2023/03/31 23:57:33;;;;;;;2.47;0.80;;;;;;;;;;8314993;28;20014;-64
